sensor_id;sensor_type;location;lat;lon;timestamp;temperature;humidity
25332;DHT22;13284;52.748;13.452;2022-12-07T00:01:37;3.20;99.90
25332;DHT22;13284;52.748;13.452;2022-12-07T00:04:04;3.20;99.90
25332;DHT22;13284;52.748;13.452;2022-12-07T00:06:38;3.20;99.90
25332;DHT22;13284;52.748;13.452;2022-12-07T00:09:05;3.20;99.90
25332;DHT22;13284;52.748;13.452;2022-12-07T00:11:32;3.20;99.90
25332;DHT22;13284;52.748;13.452;2022-12-07T00:14:00;3.20;99.90
25332;DHT22;13284;52.748;13.452;2022-12-07T00:16:29;3.20;99.90
25332;DHT22;13284;52.748;13.452;2022-12-07T00:18:56;3.20;99.90
25332;DHT22;13284;52.748;13.452;2022-12-07T00:21:25;3.10;99.90
25332;DHT22;13284;52.748;13.452;2022-12-07T00:23:52;3.10;99.90
25332;DHT22;13284;52.748;13.452;2022-12-07T00:26:20;3.00;99.90
25332;DHT22;13284;52.748;13.452;2022-12-07T00:28:47;3.00;99.90
25332;DHT22;13284;52.748;13.452;2022-12-07T00:31:13;3.00;99.90
25332;DHT22;13284;52.748;13.452;2022-12-07T00:33:39;3.00;99.90
25332;DHT22;13284;52.748;13.452;2022-12-07T00:36:08;3.00;99.90
25332;DHT22;13284;52.748;13.452;2022-12-07T00:38:35;3.00;99.90
25332;DHT22;13284;52.748;13.452;2022-12-07T00:41:04;2.90;99.90
25332;DHT22;13284;52.748;13.452;2022-12-07T00:43:30;2.90;99.90
25332;DHT22;13284;52.748;13.452;2022-12-07T00:45:56;2.80;99.90
25332;DHT22;13284;52.748;13.452;2022-12-07T00:48:22;2.80;99.90
25332;DHT22;13284;52.748;13.452;2022-12-07T00:50:48;2.80;99.90
25332;DHT22;13284;52.748;13.452;2022-12-07T00:53:14;2.80;99.90
25332;DHT22;13284;52.748;13.452;2022-12-07T00:55:39;2.70;99.90
25332;DHT22;13284;52.748;13.452;2022-12-07T00:58:05;2.60;99.90
25332;DHT22;13284;52.748;13.452;2022-12-07T01:00:31;2.60;99.90
25332;DHT22;13284;52.748;13.452;2022-12-07T01:02:57;2.60;99.90
25332;DHT22;13284;52.748;13.452;2022-12-07T01:05:22;2.60;99.90
25332;DHT22;13284;52.748;13.452;2022-12-07T01:07:47;2.60;99.90
25332;DHT22;13284;52.748;13.452;2022-12-07T01:10:14;2.50;99.90
25332;DHT22;13284;52.748;13.452;2022-12-07T01:12:40;2.40;99.90
25332;DHT22;13284;52.748;13.452;2022-12-07T01:15:07;2.40;99.90
25332;DHT22;13284;52.748;13.452;2022-12-07T01:17:33;2.30;99.90
25332;DHT22;13284;52.748;13.452;2022-12-07T01:20:00;2.30;99.90
25332;DHT22;13284;52.748;13.452;2022-12-07T01:22:25;2.30;99.90
25332;DHT22;13284;52.748;13.452;2022-12-07T01:24:51;2.30;99.90
25332;DHT22;13284;52.748;13.452;2022-12-07T01:27:17;2.30;99.90
25332;DHT22;13284;52.748;13.452;2022-12-07T01:29:42;2.30;99.90
25332;DHT22;13284;52.748;13.452;2022-12-07T01:32:07;2.30;99.90
25332;DHT22;13284;52.748;13.452;2022-12-07T01:34:33;2.30;99.90
25332;DHT22;13284;52.748;13.452;2022-12-07T01:36:58;2.30;99.90
25332;DHT22;13284;52.748;13.452;2022-12-07T01:39:24;2.30;99.90
25332;DHT22;13284;52.748;13.452;2022-12-07T01:41:50;2.30;99.90
25332;DHT22;13284;52.748;13.452;2022-12-07T01:46:55;2.20;99.90
25332;DHT22;13284;52.748;13.452;2022-12-07T01:49:29;2.20;99.90
25332;DHT22;13284;52.748;13.452;2022-12-07T01:54:41;2.20;99.90
25332;DHT22;13284;52.748;13.452;2022-12-07T01:57:08;2.20;99.90
25332;DHT22;13284;52.748;13.452;2022-12-07T01:59:35;2.10;99.90
25332;DHT22;13284;52.748;13.452;2022-12-07T02:02:02;2.10;99.90
25332;DHT22;13284;52.748;13.452;2022-12-07T02:04:29;2.00;99.90
25332;DHT22;13284;52.748;13.452;2022-12-07T02:06:55;1.90;99.90
25332;DHT22;13284;52.748;13.452;2022-12-07T02:09:23;1.90;99.90
25332;DHT22;13284;52.748;13.452;2022-12-07T02:11:49;1.90;99.90
25332;DHT22;13284;52.748;13.452;2022-12-07T02:14:14;1.90;99.90
25332;DHT22;13284;52.748;13.452;2022-12-07T02:16:47;1.90;99.90
25332;DHT22;13284;52.748;13.452;2022-12-07T02:19:58;1.90;99.90
25332;DHT22;13284;52.748;13.452;2022-12-07T02:22:59;1.90;99.90
25332;DHT22;13284;52.748;13.452;2022-12-07T02:30:49;1.80;99.90
25332;DHT22;13284;52.748;13.452;2022-12-07T02:33:20;1.70;99.90
25332;DHT22;13284;52.748;13.452;2022-12-07T02:35:58;1.70;99.90
25332;DHT22;13284;52.748;13.452;2022-12-07T02:38:31;1.70;99.90
25332;DHT22;13284;52.748;13.452;2022-12-07T02:41:09;1.70;99.90
25332;DHT22;13284;52.748;13.452;2022-12-07T02:43:45;1.70;99.90
25332;DHT22;13284;52.748;13.452;2022-12-07T02:46:15;1.70;99.90
25332;DHT22;13284;52.748;13.452;2022-12-07T02:51:54;1.70;99.90
25332;DHT22;13284;52.748;13.452;2022-12-07T02:54:21;1.70;99.90
25332;DHT22;13284;52.748;13.452;2022-12-07T03:00:12;1.70;99.90
25332;DHT22;13284;52.748;13.452;2022-12-07T03:02:43;1.70;99.90
25332;DHT22;13284;52.748;13.452;2022-12-07T03:16:09;1.70;99.90
25332;DHT22;13284;52.748;13.452;2022-12-07T03:19:06;1.70;99.90
25332;DHT22;13284;52.748;13.452;2022-12-07T03:21:37;1.70;99.90
25332;DHT22;13284;52.748;13.452;2022-12-07T03:24:11;1.70;99.90
25332;DHT22;13284;52.748;13.452;2022-12-07T03:26:42;1.70;99.90
25332;DHT22;13284;52.748;13.452;2022-12-07T03:29:13;1.60;99.90
25332;DHT22;13284;52.748;13.452;2022-12-07T03:31:43;1.70;99.90
25332;DHT22;13284;52.748;13.452;2022-12-07T03:34:18;1.70;99.90
25332;DHT22;13284;52.748;13.452;2022-12-07T03:36:59;1.70;99.90
25332;DHT22;13284;52.748;13.452;2022-12-07T03:42:03;1.70;99.90
25332;DHT22;13284;52.748;13.452;2022-12-07T03:44:29;1.70;99.90
25332;DHT22;13284;52.748;13.452;2022-12-07T03:47:05;1.70;99.90
25332;DHT22;13284;52.748;13.452;2022-12-07T03:49:45;1.70;99.90
25332;DHT22;13284;52.748;13.452;2022-12-07T03:52:47;1.70;99.90
25332;DHT22;13284;52.748;13.452;2022-12-07T03:55:31;1.70;99.90
25332;DHT22;13284;52.748;13.452;2022-12-07T03:58:07;1.60;99.90
25332;DHT22;13284;52.748;13.452;2022-12-07T04:00:35;1.60;99.90
25332;DHT22;13284;52.748;13.452;2022-12-07T04:03:00;1.60;99.90
25332;DHT22;13284;52.748;13.452;2022-12-07T04:05:26;1.60;99.90
25332;DHT22;13284;52.748;13.452;2022-12-07T04:07:52;1.60;99.90
25332;DHT22;13284;52.748;13.452;2022-12-07T04:10:18;1.60;99.90
25332;DHT22;13284;52.748;13.452;2022-12-07T04:12:44;1.60;99.90
25332;DHT22;13284;52.748;13.452;2022-12-07T04:15:09;1.60;99.90
25332;DHT22;13284;52.748;13.452;2022-12-07T04:17:35;1.60;99.90
25332;DHT22;13284;52.748;13.452;2022-12-07T04:20:01;1.60;99.90
25332;DHT22;13284;52.748;13.452;2022-12-07T04:22:26;1.70;99.90
25332;DHT22;13284;52.748;13.452;2022-12-07T04:24:52;1.70;99.90
25332;DHT22;13284;52.748;13.452;2022-12-07T04:27:17;1.80;99.90
25332;DHT22;13284;52.748;13.452;2022-12-07T04:29:43;1.80;99.90
25332;DHT22;13284;52.748;13.452;2022-12-07T04:32:08;1.80;99.90
25332;DHT22;13284;52.748;13.452;2022-12-07T04:34:34;1.80;99.90
25332;DHT22;13284;52.748;13.452;2022-12-07T04:37:00;1.80;99.90
25332;DHT22;13284;52.748;13.452;2022-12-07T04:39:28;1.80;99.90
25332;DHT22;13284;52.748;13.452;2022-12-07T04:41:54;1.80;99.90
25332;DHT22;13284;52.748;13.452;2022-12-07T04:44:21;1.80;99.90
25332;DHT22;13284;52.748;13.452;2022-12-07T04:46:47;1.80;99.90
25332;DHT22;13284;52.748;13.452;2022-12-07T04:49:13;1.90;99.90
25332;DHT22;13284;52.748;13.452;2022-12-07T04:51:40;1.90;99.90
25332;DHT22;13284;52.748;13.452;2022-12-07T04:54:06;1.90;99.90
25332;DHT22;13284;52.748;13.452;2022-12-07T04:56:32;1.90;99.90
25332;DHT22;13284;52.748;13.452;2022-12-07T04:58:58;2.00;99.90
25332;DHT22;13284;52.748;13.452;2022-12-07T05:01:24;2.00;99.90
25332;DHT22;13284;52.748;13.452;2022-12-07T05:03:50;2.00;99.90
25332;DHT22;13284;52.748;13.452;2022-12-07T05:06:15;2.00;99.90
25332;DHT22;13284;52.748;13.452;2022-12-07T05:08:42;2.00;99.90
25332;DHT22;13284;52.748;13.452;2022-12-07T05:11:09;2.10;99.90
25332;DHT22;13284;52.748;13.452;2022-12-07T05:13:35;2.10;99.90
25332;DHT22;13284;52.748;13.452;2022-12-07T05:16:01;2.10;99.90
25332;DHT22;13284;52.748;13.452;2022-12-07T05:18:27;2.10;99.90
25332;DHT22;13284;52.748;13.452;2022-12-07T05:20:53;2.20;99.90
25332;DHT22;13284;52.748;13.452;2022-12-07T05:23:18;2.20;99.90
25332;DHT22;13284;52.748;13.452;2022-12-07T05:25:44;2.20;99.90
25332;DHT22;13284;52.748;13.452;2022-12-07T05:28:10;2.20;99.90
25332;DHT22;13284;52.748;13.452;2022-12-07T05:30:36;2.30;99.90
25332;DHT22;13284;52.748;13.452;2022-12-07T05:33:02;2.30;99.90
25332;DHT22;13284;52.748;13.452;2022-12-07T05:35:28;2.30;99.90
25332;DHT22;13284;52.748;13.452;2022-12-07T05:37:55;2.30;99.90
25332;DHT22;13284;52.748;13.452;2022-12-07T05:40:20;2.40;99.90
25332;DHT22;13284;52.748;13.452;2022-12-07T05:42:46;2.40;99.90
25332;DHT22;13284;52.748;13.452;2022-12-07T05:45:12;2.40;99.90
25332;DHT22;13284;52.748;13.452;2022-12-07T05:47:37;2.40;99.90
25332;DHT22;13284;52.748;13.452;2022-12-07T05:50:04;2.50;99.90
25332;DHT22;13284;52.748;13.452;2022-12-07T05:52:29;2.50;99.90
25332;DHT22;13284;52.748;13.452;2022-12-07T05:54:55;2.60;99.90
25332;DHT22;13284;52.748;13.452;2022-12-07T05:57:21;2.60;99.90
25332;DHT22;13284;52.748;13.452;2022-12-07T05:59:46;2.60;99.90
25332;DHT22;13284;52.748;13.452;2022-12-07T06:02:13;2.60;99.90
25332;DHT22;13284;52.748;13.452;2022-12-07T06:04:42;2.60;99.90
25332;DHT22;13284;52.748;13.452;2022-12-07T06:07:08;2.60;99.90
25332;DHT22;13284;52.748;13.452;2022-12-07T06:09:35;2.70;99.90
25332;DHT22;13284;52.748;13.452;2022-12-07T06:12:01;2.70;99.90
25332;DHT22;13284;52.748;13.452;2022-12-07T06:14:45;2.70;99.90
25332;DHT22;13284;52.748;13.452;2022-12-07T06:17:12;2.80;99.90
25332;DHT22;13284;52.748;13.452;2022-12-07T06:19:38;2.80;99.90
25332;DHT22;13284;52.748;13.452;2022-12-07T06:22:04;2.80;99.90
25332;DHT22;13284;52.748;13.452;2022-12-07T06:24:31;2.80;99.90
25332;DHT22;13284;52.748;13.452;2022-12-07T06:26:57;2.80;99.90
25332;DHT22;13284;52.748;13.452;2022-12-07T06:29:23;2.80;99.90
25332;DHT22;13284;52.748;13.452;2022-12-07T06:31:48;2.80;99.90
25332;DHT22;13284;52.748;13.452;2022-12-07T06:34:16;2.80;99.90
25332;DHT22;13284;52.748;13.452;2022-12-07T06:36:42;2.80;99.90
25332;DHT22;13284;52.748;13.452;2022-12-07T06:39:08;2.80;99.90
25332;DHT22;13284;52.748;13.452;2022-12-07T06:41:35;2.80;99.90
25332;DHT22;13284;52.748;13.452;2022-12-07T06:44:01;2.80;99.90
25332;DHT22;13284;52.748;13.452;2022-12-07T06:46:27;2.90;99.90
25332;DHT22;13284;52.748;13.452;2022-12-07T06:48:52;2.90;99.90
25332;DHT22;13284;52.748;13.452;2022-12-07T06:51:19;2.90;99.90
25332;DHT22;13284;52.748;13.452;2022-12-07T06:53:44;2.90;99.90
25332;DHT22;13284;52.748;13.452;2022-12-07T06:56:10;3.00;99.90
25332;DHT22;13284;52.748;13.452;2022-12-07T06:58:35;2.90;99.90
25332;DHT22;13284;52.748;13.452;2022-12-07T07:01:01;3.00;99.90
25332;DHT22;13284;52.748;13.452;2022-12-07T07:03:27;3.10;99.90
25332;DHT22;13284;52.748;13.452;2022-12-07T07:05:52;3.10;99.90
25332;DHT22;13284;52.748;13.452;2022-12-07T07:08:18;3.00;99.90
25332;DHT22;13284;52.748;13.452;2022-12-07T07:10:43;3.10;99.90
25332;DHT22;13284;52.748;13.452;2022-12-07T07:13:09;3.10;99.90
25332;DHT22;13284;52.748;13.452;2022-12-07T07:15:34;3.10;99.90
25332;DHT22;13284;52.748;13.452;2022-12-07T07:18:02;3.20;99.90
25332;DHT22;13284;52.748;13.452;2022-12-07T07:20:29;3.20;99.90
25332;DHT22;13284;52.748;13.452;2022-12-07T07:22:55;3.20;99.90
25332;DHT22;13284;52.748;13.452;2022-12-07T07:25:21;3.20;99.90
25332;DHT22;13284;52.748;13.452;2022-12-07T07:27:46;3.30;99.90
25332;DHT22;13284;52.748;13.452;2022-12-07T07:30:12;3.30;99.90
25332;DHT22;13284;52.748;13.452;2022-12-07T07:32:38;3.30;99.90
25332;DHT22;13284;52.748;13.452;2022-12-07T07:35:04;3.30;99.90
25332;DHT22;13284;52.748;13.452;2022-12-07T07:37:29;3.30;99.90
25332;DHT22;13284;52.748;13.452;2022-12-07T07:39:55;3.40;99.90
25332;DHT22;13284;52.748;13.452;2022-12-07T07:42:20;3.30;99.90
25332;DHT22;13284;52.748;13.452;2022-12-07T07:44:46;3.40;99.90
25332;DHT22;13284;52.748;13.452;2022-12-07T07:47:11;3.40;99.90
25332;DHT22;13284;52.748;13.452;2022-12-07T07:49:37;3.40;99.90
25332;DHT22;13284;52.748;13.452;2022-12-07T07:52:03;3.40;99.90
25332;DHT22;13284;52.748;13.452;2022-12-07T07:54:30;3.40;99.90
25332;DHT22;13284;52.748;13.452;2022-12-07T07:56:55;3.40;99.90
25332;DHT22;13284;52.748;13.452;2022-12-07T07:59:21;3.40;99.90
25332;DHT22;13284;52.748;13.452;2022-12-07T08:01:46;3.40;99.90
25332;DHT22;13284;52.748;13.452;2022-12-07T08:04:12;3.40;99.90
25332;DHT22;13284;52.748;13.452;2022-12-07T08:06:37;3.40;99.90
25332;DHT22;13284;52.748;13.452;2022-12-07T08:09:03;3.40;99.90
25332;DHT22;13284;52.748;13.452;2022-12-07T08:11:30;3.40;99.90
25332;DHT22;13284;52.748;13.452;2022-12-07T08:13:56;3.40;99.90
25332;DHT22;13284;52.748;13.452;2022-12-07T08:16:21;3.40;99.90
25332;DHT22;13284;52.748;13.452;2022-12-07T08:18:47;3.40;99.90
25332;DHT22;13284;52.748;13.452;2022-12-07T08:21:14;3.40;99.90
25332;DHT22;13284;52.748;13.452;2022-12-07T08:23:41;3.50;99.90
25332;DHT22;13284;52.748;13.452;2022-12-07T08:26:09;3.50;99.90
25332;DHT22;13284;52.748;13.452;2022-12-07T08:28:36;3.50;99.90
25332;DHT22;13284;52.748;13.452;2022-12-07T08:31:13;3.50;99.90
25332;DHT22;13284;52.748;13.452;2022-12-07T08:33:39;3.60;99.90
25332;DHT22;13284;52.748;13.452;2022-12-07T08:36:08;3.60;99.90
25332;DHT22;13284;52.748;13.452;2022-12-07T08:38:35;3.60;99.90
25332;DHT22;13284;52.748;13.452;2022-12-07T08:41:01;3.50;99.90
25332;DHT22;13284;52.748;13.452;2022-12-07T08:43:27;3.60;99.90
25332;DHT22;13284;52.748;13.452;2022-12-07T08:46:41;3.60;99.90
25332;DHT22;13284;52.748;13.452;2022-12-07T08:49:20;3.60;99.90
25332;DHT22;13284;52.748;13.452;2022-12-07T08:51:47;3.50;99.90
25332;DHT22;13284;52.748;13.452;2022-12-07T08:54:17;3.60;99.90
25332;DHT22;13284;52.748;13.452;2022-12-07T08:56:44;3.60;99.90
25332;DHT22;13284;52.748;13.452;2022-12-07T08:59:13;3.60;99.90
25332;DHT22;13284;52.748;13.452;2022-12-07T09:01:39;3.60;99.90
25332;DHT22;13284;52.748;13.452;2022-12-07T09:04:04;3.50;99.90
25332;DHT22;13284;52.748;13.452;2022-12-07T09:06:30;3.60;99.90
25332;DHT22;13284;52.748;13.452;2022-12-07T09:08:58;3.60;99.90
25332;DHT22;13284;52.748;13.452;2022-12-07T09:11:25;3.60;99.90
25332;DHT22;13284;52.748;13.452;2022-12-07T09:13:51;3.60;99.90
25332;DHT22;13284;52.748;13.452;2022-12-07T09:16:16;3.50;99.90
25332;DHT22;13284;52.748;13.452;2022-12-07T09:18:42;3.60;99.90
25332;DHT22;13284;52.748;13.452;2022-12-07T09:21:08;3.60;99.90
25332;DHT22;13284;52.748;13.452;2022-12-07T09:23:34;3.60;99.90
25332;DHT22;13284;52.748;13.452;2022-12-07T09:26:00;3.60;99.90
25332;DHT22;13284;52.748;13.452;2022-12-07T09:28:26;3.60;99.90
25332;DHT22;13284;52.748;13.452;2022-12-07T09:30:51;3.60;99.90
25332;DHT22;13284;52.748;13.452;2022-12-07T09:33:17;3.60;99.90
25332;DHT22;13284;52.748;13.452;2022-12-07T09:35:50;3.60;99.90
25332;DHT22;13284;52.748;13.452;2022-12-07T09:38:16;3.60;99.90
25332;DHT22;13284;52.748;13.452;2022-12-07T09:40:42;3.50;99.90
25332;DHT22;13284;52.748;13.452;2022-12-07T09:43:14;3.50;99.90
25332;DHT22;13284;52.748;13.452;2022-12-07T09:45:41;3.60;99.90
25332;DHT22;13284;52.748;13.452;2022-12-07T09:48:18;3.50;99.90
25332;DHT22;13284;52.748;13.452;2022-12-07T09:50:45;3.60;99.90
25332;DHT22;13284;52.748;13.452;2022-12-07T09:53:27;3.50;99.90
25332;DHT22;13284;52.748;13.452;2022-12-07T09:55:53;3.50;99.90
25332;DHT22;13284;52.748;13.452;2022-12-07T09:58:25;3.50;99.90
25332;DHT22;13284;52.748;13.452;2022-12-07T10:01:09;3.50;99.90
25332;DHT22;13284;52.748;13.452;2022-12-07T10:03:37;3.50;99.90
25332;DHT22;13284;52.748;13.452;2022-12-07T10:06:05;3.40;99.90
25332;DHT22;13284;52.748;13.452;2022-12-07T10:08:31;3.30;99.90
25332;DHT22;13284;52.748;13.452;2022-12-07T10:10:57;3.20;99.90
25332;DHT22;13284;52.748;13.452;2022-12-07T10:13:35;3.20;99.90
25332;DHT22;13284;52.748;13.452;2022-12-07T10:16:01;3.10;99.90
25332;DHT22;13284;52.748;13.452;2022-12-07T10:23:33;3.20;99.90
25332;DHT22;13284;52.748;13.452;2022-12-07T10:25:59;3.30;99.90
25332;DHT22;13284;52.748;13.452;2022-12-07T10:28:34;3.40;99.90
25332;DHT22;13284;52.748;13.452;2022-12-07T10:31:03;3.50;99.90
25332;DHT22;13284;52.748;13.452;2022-12-07T10:33:58;3.50;99.90
25332;DHT22;13284;52.748;13.452;2022-12-07T10:36:35;3.50;99.90
25332;DHT22;13284;52.748;13.452;2022-12-07T10:39:14;3.60;99.90
25332;DHT22;13284;52.748;13.452;2022-12-07T10:44:27;3.80;99.90
25332;DHT22;13284;52.748;13.452;2022-12-07T10:47:33;3.90;99.90
25332;DHT22;13284;52.748;13.452;2022-12-07T10:53:17;4.00;99.90
25332;DHT22;13284;52.748;13.452;2022-12-07T11:01:38;3.90;99.90
25332;DHT22;13284;52.748;13.452;2022-12-07T11:06:52;3.80;99.90
25332;DHT22;13284;52.748;13.452;2022-12-07T11:12:11;3.70;99.90
25332;DHT22;13284;52.748;13.452;2022-12-07T11:14:58;3.60;99.90
25332;DHT22;13284;52.748;13.452;2022-12-07T11:23:29;3.80;99.90
25332;DHT22;13284;52.748;13.452;2022-12-07T11:26:21;3.80;99.90
25332;DHT22;13284;52.748;13.452;2022-12-07T11:29:20;3.80;99.90
25332;DHT22;13284;52.748;13.452;2022-12-07T11:37:13;3.80;99.90
25332;DHT22;13284;52.748;13.452;2022-12-07T11:39:53;3.80;99.90
25332;DHT22;13284;52.748;13.452;2022-12-07T11:42:27;3.80;99.90
25332;DHT22;13284;52.748;13.452;2022-12-07T11:45:15;3.70;99.90
25332;DHT22;13284;52.748;13.452;2022-12-07T11:47:53;3.60;99.90
25332;DHT22;13284;52.748;13.452;2022-12-07T11:55:42;3.70;99.90
25332;DHT22;13284;52.748;13.452;2022-12-07T11:58:41;3.70;99.90
25332;DHT22;13284;52.748;13.452;2022-12-07T12:03:56;3.80;99.90
25332;DHT22;13284;52.748;13.452;2022-12-07T12:06:23;3.80;99.90
25332;DHT22;13284;52.748;13.452;2022-12-07T12:09:02;3.80;99.90
25332;DHT22;13284;52.748;13.452;2022-12-07T12:22:02;3.90;99.90
25332;DHT22;13284;52.748;13.452;2022-12-07T12:24:32;4.00;99.90
25332;DHT22;13284;52.748;13.452;2022-12-07T12:27:07;4.00;99.90
25332;DHT22;13284;52.748;13.452;2022-12-07T12:29:38;4.00;99.90
25332;DHT22;13284;52.748;13.452;2022-12-07T12:34:42;4.00;99.90
25332;DHT22;13284;52.748;13.452;2022-12-07T12:45:28;4.40;99.90
25332;DHT22;13284;52.748;13.452;2022-12-07T12:48:00;4.40;99.90
25332;DHT22;13284;52.748;13.452;2022-12-07T12:50:33;4.50;99.90
25332;DHT22;13284;52.748;13.452;2022-12-07T13:01:30;4.30;99.90
25332;DHT22;13284;52.748;13.452;2022-12-07T13:03:34;4.20;99.90
25332;DHT22;13284;52.748;13.452;2022-12-07T13:06:19;4.30;99.90
25332;DHT22;13284;52.748;13.452;2022-12-07T13:08:45;4.20;99.90
25332;DHT22;13284;52.748;13.452;2022-12-07T13:11:32;4.20;99.90
25332;DHT22;13284;52.748;13.452;2022-12-07T13:17:55;4.10;99.90
25332;DHT22;13284;52.748;13.452;2022-12-07T13:20:06;4.30;99.90
25332;DHT22;13284;52.748;13.452;2022-12-07T13:25:30;4.10;99.90
25332;DHT22;13284;52.748;13.452;2022-12-07T13:28:20;4.20;99.90
25332;DHT22;13284;52.748;13.452;2022-12-07T13:33:46;4.20;99.90
25332;DHT22;13284;52.748;13.452;2022-12-07T13:36:55;4.20;99.90
25332;DHT22;13284;52.748;13.452;2022-12-07T13:39:21;4.20;99.90
25332;DHT22;13284;52.748;13.452;2022-12-07T13:41:54;4.10;99.90
25332;DHT22;13284;52.748;13.452;2022-12-07T13:44:20;4.10;99.90
25332;DHT22;13284;52.748;13.452;2022-12-07T13:47:09;4.00;99.90
25332;DHT22;13284;52.748;13.452;2022-12-07T13:49:46;4.10;99.90
25332;DHT22;13284;52.748;13.452;2022-12-07T13:52:22;4.00;99.90
25332;DHT22;13284;52.748;13.452;2022-12-07T13:55:14;3.90;99.90
25332;DHT22;13284;52.748;13.452;2022-12-07T13:57:40;4.00;99.90
25332;DHT22;13284;52.748;13.452;2022-12-07T14:00:16;3.90;99.90
25332;DHT22;13284;52.748;13.452;2022-12-07T14:03:00;4.00;99.90
25332;DHT22;13284;52.748;13.452;2022-12-07T14:05:29;3.90;99.90
25332;DHT22;13284;52.748;13.452;2022-12-07T14:08:01;3.90;99.90
25332;DHT22;13284;52.748;13.452;2022-12-07T14:10:33;3.90;99.90
25332;DHT22;13284;52.748;13.452;2022-12-07T14:13:00;3.90;99.90
25332;DHT22;13284;52.748;13.452;2022-12-07T14:15:31;3.90;99.90
25332;DHT22;13284;52.748;13.452;2022-12-07T14:17:59;3.80;99.90
25332;DHT22;13284;52.748;13.452;2022-12-07T14:20:40;3.80;99.90
25332;DHT22;13284;52.748;13.452;2022-12-07T14:23:25;3.80;99.90
25332;DHT22;13284;52.748;13.452;2022-12-07T14:25:53;3.70;99.90
25332;DHT22;13284;52.748;13.452;2022-12-07T14:28:33;3.70;99.90
25332;DHT22;13284;52.748;13.452;2022-12-07T14:31:00;3.60;99.90
25332;DHT22;13284;52.748;13.452;2022-12-07T14:33:27;3.60;99.90
25332;DHT22;13284;52.748;13.452;2022-12-07T14:35:53;3.60;99.90
25332;DHT22;13284;52.748;13.452;2022-12-07T14:38:23;3.60;99.90
25332;DHT22;13284;52.748;13.452;2022-12-07T14:40:50;3.50;99.90
25332;DHT22;13284;52.748;13.452;2022-12-07T14:43:17;3.50;99.90
25332;DHT22;13284;52.748;13.452;2022-12-07T14:45:43;3.40;99.90
25332;DHT22;13284;52.748;13.452;2022-12-07T14:48:21;3.40;99.90
25332;DHT22;13284;52.748;13.452;2022-12-07T14:50:57;3.30;99.90
25332;DHT22;13284;52.748;13.452;2022-12-07T14:53:29;3.30;99.90
25332;DHT22;13284;52.748;13.452;2022-12-07T14:55:55;3.20;99.90
25332;DHT22;13284;52.748;13.452;2022-12-07T14:58:21;3.20;99.90
25332;DHT22;13284;52.748;13.452;2022-12-07T15:00:49;3.20;99.90
25332;DHT22;13284;52.748;13.452;2022-12-07T15:03:18;3.10;99.90
25332;DHT22;13284;52.748;13.452;2022-12-07T15:05:45;3.00;99.90
25332;DHT22;13284;52.748;13.452;2022-12-07T15:08:12;3.00;99.90
25332;DHT22;13284;52.748;13.452;2022-12-07T15:10:39;3.00;99.90
25332;DHT22;13284;52.748;13.452;2022-12-07T15:13:08;3.00;99.90
25332;DHT22;13284;52.748;13.452;2022-12-07T15:16:10;3.00;99.90
25332;DHT22;13284;52.748;13.452;2022-12-07T15:18:36;2.90;99.90
25332;DHT22;13284;52.748;13.452;2022-12-07T15:21:02;2.90;99.90
25332;DHT22;13284;52.748;13.452;2022-12-07T15:23:28;3.00;99.90
25332;DHT22;13284;52.748;13.452;2022-12-07T15:25:56;3.00;99.90
25332;DHT22;13284;52.748;13.452;2022-12-07T15:28:21;2.80;99.90
25332;DHT22;13284;52.748;13.452;2022-12-07T15:30:47;2.60;99.90
25332;DHT22;13284;52.748;13.452;2022-12-07T15:33:13;2.50;99.90
25332;DHT22;13284;52.748;13.452;2022-12-07T15:35:45;2.30;99.90
25332;DHT22;13284;52.748;13.452;2022-12-07T15:38:11;2.20;99.90
25332;DHT22;13284;52.748;13.452;2022-12-07T15:40:36;2.10;99.90
25332;DHT22;13284;52.748;13.452;2022-12-07T15:43:03;1.90;99.90
25332;DHT22;13284;52.748;13.452;2022-12-07T15:45:29;1.90;99.90
25332;DHT22;13284;52.748;13.452;2022-12-07T15:47:54;1.90;99.90
25332;DHT22;13284;52.748;13.452;2022-12-07T15:50:21;1.80;99.90
25332;DHT22;13284;52.748;13.452;2022-12-07T15:52:48;1.80;99.90
25332;DHT22;13284;52.748;13.452;2022-12-07T15:55:14;1.80;99.90
25332;DHT22;13284;52.748;13.452;2022-12-07T15:57:40;1.80;99.90
25332;DHT22;13284;52.748;13.452;2022-12-07T16:00:07;1.80;99.90
25332;DHT22;13284;52.748;13.452;2022-12-07T16:02:34;1.80;99.90
25332;DHT22;13284;52.748;13.452;2022-12-07T16:04:59;1.80;99.90
25332;DHT22;13284;52.748;13.452;2022-12-07T16:07:25;1.80;99.90
25332;DHT22;13284;52.748;13.452;2022-12-07T16:09:51;1.80;99.90
25332;DHT22;13284;52.748;13.452;2022-12-07T16:12:16;1.80;99.90
25332;DHT22;13284;52.748;13.452;2022-12-07T16:14:42;1.80;99.90
25332;DHT22;13284;52.748;13.452;2022-12-07T16:17:08;1.90;99.90
25332;DHT22;13284;52.748;13.452;2022-12-07T16:19:35;1.90;99.90
25332;DHT22;13284;52.748;13.452;2022-12-07T16:22:02;1.90;99.90
25332;DHT22;13284;52.748;13.452;2022-12-07T16:24:28;1.80;99.90
25332;DHT22;13284;52.748;13.452;2022-12-07T16:26:54;1.80;99.90
25332;DHT22;13284;52.748;13.452;2022-12-07T16:29:20;1.80;99.90
25332;DHT22;13284;52.748;13.452;2022-12-07T16:31:47;1.80;99.90
25332;DHT22;13284;52.748;13.452;2022-12-07T16:34:13;1.70;99.90
25332;DHT22;13284;52.748;13.452;2022-12-07T16:36:38;1.70;99.90
25332;DHT22;13284;52.748;13.452;2022-12-07T16:39:04;1.70;99.90
25332;DHT22;13284;52.748;13.452;2022-12-07T16:41:30;1.70;99.90
25332;DHT22;13284;52.748;13.452;2022-12-07T16:43:56;1.70;99.90
25332;DHT22;13284;52.748;13.452;2022-12-07T16:46:21;1.80;99.90
25332;DHT22;13284;52.748;13.452;2022-12-07T16:48:47;1.80;99.90
25332;DHT22;13284;52.748;13.452;2022-12-07T16:51:14;1.70;99.90
25332;DHT22;13284;52.748;13.452;2022-12-07T16:53:41;1.70;99.90
25332;DHT22;13284;52.748;13.452;2022-12-07T16:56:14;1.60;99.90
25332;DHT22;13284;52.748;13.452;2022-12-07T16:58:42;1.70;99.90
25332;DHT22;13284;52.748;13.452;2022-12-07T17:01:17;1.60;99.90
25332;DHT22;13284;52.748;13.452;2022-12-07T17:03:43;1.60;99.90
25332;DHT22;13284;52.748;13.452;2022-12-07T17:06:20;1.60;99.90
25332;DHT22;13284;52.748;13.452;2022-12-07T17:08:47;1.60;99.90
25332;DHT22;13284;52.748;13.452;2022-12-07T17:11:16;1.70;99.90
25332;DHT22;13284;52.748;13.452;2022-12-07T17:13:42;1.70;99.90
25332;DHT22;13284;52.748;13.452;2022-12-07T17:16:27;1.70;99.90
25332;DHT22;13284;52.748;13.452;2022-12-07T17:18:53;1.80;99.90
25332;DHT22;13284;52.748;13.452;2022-12-07T17:21:18;1.80;99.90
25332;DHT22;13284;52.748;13.452;2022-12-07T17:23:44;1.80;99.90
25332;DHT22;13284;52.748;13.452;2022-12-07T17:26:16;1.80;99.90
25332;DHT22;13284;52.748;13.452;2022-12-07T17:28:42;1.80;99.90
25332;DHT22;13284;52.748;13.452;2022-12-07T17:31:10;1.80;99.90
25332;DHT22;13284;52.748;13.452;2022-12-07T17:33:36;1.80;99.90
25332;DHT22;13284;52.748;13.452;2022-12-07T17:36:17;1.80;99.90